sensor_id;sensor_type;location;lat;lon;timestamp;P1;durP1;ratioP1;P2;durP2;ratioP2
11671;SDS011;5892;43.412;24.612;2023-02-15T00:01:38;28.33;;;21.07;;
11671;SDS011;5892;43.412;24.612;2023-02-15T00:04:05;26.43;;;19.37;;
11671;SDS011;5892;43.412;24.612;2023-02-15T00:06:33;28.70;;;20.30;;
11671;SDS011;5892;43.412;24.612;2023-02-15T00:09:02;27.93;;;20.60;;
11671;SDS011;5892;43.412;24.612;2023-02-15T00:11:31;28.07;;;20.77;;
11671;SDS011;5892;43.412;24.612;2023-02-15T00:14:08;29.87;;;21.20;;
11671;SDS011;5892;43.412;24.612;2023-02-15T00:16:37;29.37;;;21.77;;
11671;SDS011;5892;43.412;24.612;2023-02-15T00:19:04;27.67;;;21.63;;
11671;SDS011;5892;43.412;24.612;2023-02-15T00:21:33;31.80;;;22.00;;
11671;SDS011;5892;43.412;24.612;2023-02-15T00:24:01;31.03;;;22.47;;
11671;SDS011;5892;43.412;24.612;2023-02-15T00:26:31;28.53;;;21.80;;
11671;SDS011;5892;43.412;24.612;2023-02-15T00:28:59;29.63;;;22.17;;
11671;SDS011;5892;43.412;24.612;2023-02-15T00:31:27;32.70;;;23.33;;
11671;SDS011;5892;43.412;24.612;2023-02-15T00:34:00;29.70;;;22.10;;
11671;SDS011;5892;43.412;24.612;2023-02-15T00:36:28;32.57;;;23.90;;
11671;SDS011;5892;43.412;24.612;2023-02-15T00:38:55;35.47;;;24.03;;
11671;SDS011;5892;43.412;24.612;2023-02-15T00:41:22;32.67;;;23.60;;
11671;SDS011;5892;43.412;24.612;2023-02-15T00:43:52;34.27;;;24.20;;
11671;SDS011;5892;43.412;24.612;2023-02-15T00:46:19;34.00;;;24.80;;
11671;SDS011;5892;43.412;24.612;2023-02-15T00:48:47;33.97;;;24.60;;
11671;SDS011;5892;43.412;24.612;2023-02-15T00:51:14;34.97;;;25.00;;
11671;SDS011;5892;43.412;24.612;2023-02-15T00:53:42;35.53;;;25.63;;
11671;SDS011;5892;43.412;24.612;2023-02-15T00:56:09;36.10;;;25.07;;
11671;SDS011;5892;43.412;24.612;2023-02-15T00:58:37;34.23;;;25.00;;
11671;SDS011;5892;43.412;24.612;2023-02-15T01:01:07;37.47;;;25.63;;
11671;SDS011;5892;43.412;24.612;2023-02-15T01:03:35;34.87;;;24.97;;
11671;SDS011;5892;43.412;24.612;2023-02-15T01:06:02;34.23;;;25.07;;
11671;SDS011;5892;43.412;24.612;2023-02-15T01:08:30;35.47;;;25.23;;
11671;SDS011;5892;43.412;24.612;2023-02-15T01:11:02;36.53;;;25.97;;
11671;SDS011;5892;43.412;24.612;2023-02-15T01:13:30;36.67;;;25.73;;
11671;SDS011;5892;43.412;24.612;2023-02-15T01:15:57;37.37;;;25.40;;
11671;SDS011;5892;43.412;24.612;2023-02-15T01:18:25;36.47;;;25.83;;
11671;SDS011;5892;43.412;24.612;2023-02-15T01:20:53;35.30;;;25.50;;
11671;SDS011;5892;43.412;24.612;2023-02-15T01:23:20;38.23;;;26.77;;
11671;SDS011;5892;43.412;24.612;2023-02-15T01:25:47;38.07;;;26.37;;
11671;SDS011;5892;43.412;24.612;2023-02-15T01:28:14;37.20;;;25.93;;
11671;SDS011;5892;43.412;24.612;2023-02-15T01:30:41;35.30;;;24.57;;
11671;SDS011;5892;43.412;24.612;2023-02-15T01:33:09;40.10;;;26.77;;
11671;SDS011;5892;43.412;24.612;2023-02-15T01:35:44;38.53;;;27.47;;
11671;SDS011;5892;43.412;24.612;2023-02-15T01:38:13;37.67;;;26.43;;
11671;SDS011;5892;43.412;24.612;2023-02-15T01:40:42;35.53;;;26.23;;
11671;SDS011;5892;43.412;24.612;2023-02-15T01:43:10;36.97;;;26.33;;
11671;SDS011;5892;43.412;24.612;2023-02-15T01:45:38;37.67;;;26.87;;
11671;SDS011;5892;43.412;24.612;2023-02-15T01:48:12;39.03;;;28.07;;
11671;SDS011;5892;43.412;24.612;2023-02-15T01:50:48;36.63;;;26.60;;
11671;SDS011;5892;43.412;24.612;2023-02-15T01:53:20;34.07;;;25.50;;
11671;SDS011;5892;43.412;24.612;2023-02-15T01:55:52;37.80;;;26.90;;
11671;SDS011;5892;43.412;24.612;2023-02-15T01:58:25;34.27;;;26.00;;
11671;SDS011;5892;43.412;24.612;2023-02-15T02:00:55;35.30;;;25.10;;
11671;SDS011;5892;43.412;24.612;2023-02-15T02:03:29;38.17;;;26.47;;
11671;SDS011;5892;43.412;24.612;2023-02-15T02:06:05;36.97;;;26.53;;
11671;SDS011;5892;43.412;24.612;2023-02-15T02:08:32;35.03;;;25.60;;
11671;SDS011;5892;43.412;24.612;2023-02-15T02:11:00;36.33;;;26.47;;
11671;SDS011;5892;43.412;24.612;2023-02-15T02:13:27;41.17;;;28.73;;
11671;SDS011;5892;43.412;24.612;2023-02-15T02:15:56;37.93;;;27.10;;
11671;SDS011;5892;43.412;24.612;2023-02-15T02:18:33;35.37;;;25.17;;
11671;SDS011;5892;43.412;24.612;2023-02-15T02:21:16;32.27;;;24.30;;
11671;SDS011;5892;43.412;24.612;2023-02-15T02:24:08;35.47;;;24.47;;
11671;SDS011;5892;43.412;24.612;2023-02-15T02:27:05;35.43;;;24.77;;
11671;SDS011;5892;43.412;24.612;2023-02-15T02:33:23;34.57;;;23.80;;
11671;SDS011;5892;43.412;24.612;2023-02-15T02:36:08;33.17;;;22.77;;
11671;SDS011;5892;43.412;24.612;2023-02-15T02:38:46;33.23;;;23.50;;
11671;SDS011;5892;43.412;24.612;2023-02-15T02:41:24;31.07;;;23.00;;
11671;SDS011;5892;43.412;24.612;2023-02-15T02:43:59;33.20;;;22.17;;
11671;SDS011;5892;43.412;24.612;2023-02-15T02:46:35;30.80;;;21.67;;
11671;SDS011;5892;43.412;24.612;2023-02-15T02:49:09;30.90;;;22.43;;
11671;SDS011;5892;43.412;24.612;2023-02-15T02:51:36;30.57;;;22.80;;
11671;SDS011;5892;43.412;24.612;2023-02-15T02:54:04;31.30;;;22.47;;
11671;SDS011;5892;43.412;24.612;2023-02-15T02:56:36;32.60;;;23.30;;
11671;SDS011;5892;43.412;24.612;2023-02-15T02:59:06;32.77;;;23.10;;
11671;SDS011;5892;43.412;24.612;2023-02-15T03:01:40;33.53;;;23.80;;
11671;SDS011;5892;43.412;24.612;2023-02-15T03:04:16;32.73;;;23.27;;
11671;SDS011;5892;43.412;24.612;2023-02-15T03:06:48;32.10;;;22.57;;
11671;SDS011;5892;43.412;24.612;2023-02-15T03:09:21;34.30;;;24.00;;
11671;SDS011;5892;43.412;24.612;2023-02-15T03:11:59;34.20;;;23.67;;
11671;SDS011;5892;43.412;24.612;2023-02-15T03:14:28;32.07;;;22.67;;
11671;SDS011;5892;43.412;24.612;2023-02-15T03:16:56;30.90;;;21.80;;
11671;SDS011;5892;43.412;24.612;2023-02-15T03:19:27;31.80;;;22.40;;
11671;SDS011;5892;43.412;24.612;2023-02-15T03:21:57;31.83;;;21.97;;
11671;SDS011;5892;43.412;24.612;2023-02-15T03:24:34;29.73;;;21.20;;
11671;SDS011;5892;43.412;24.612;2023-02-15T03:27:05;30.30;;;21.67;;
11671;SDS011;5892;43.412;24.612;2023-02-15T03:29:36;31.07;;;22.43;;
11671;SDS011;5892;43.412;24.612;2023-02-15T03:32:05;30.90;;;21.93;;
11671;SDS011;5892;43.412;24.612;2023-02-15T03:34:38;30.53;;;22.17;;
11671;SDS011;5892;43.412;24.612;2023-02-15T03:37:06;31.67;;;22.27;;
11671;SDS011;5892;43.412;24.612;2023-02-15T03:39:41;31.53;;;21.17;;
11671;SDS011;5892;43.412;24.612;2023-02-15T03:42:16;29.90;;;20.73;;
11671;SDS011;5892;43.412;24.612;2023-02-15T03:44:49;27.40;;;20.03;;
11671;SDS011;5892;43.412;24.612;2023-02-15T03:47:22;29.70;;;20.83;;
11671;SDS011;5892;43.412;24.612;2023-02-15T03:49:55;28.17;;;20.60;;
11671;SDS011;5892;43.412;24.612;2023-02-15T03:52:27;29.10;;;20.20;;
11671;SDS011;5892;43.412;24.612;2023-02-15T03:54:57;29.13;;;20.83;;
11671;SDS011;5892;43.412;24.612;2023-02-15T03:57:26;28.60;;;20.40;;
11671;SDS011;5892;43.412;24.612;2023-02-15T04:00:13;27.57;;;19.97;;
11671;SDS011;5892;43.412;24.612;2023-02-15T04:08:33;29.60;;;20.07;;
11671;SDS011;5892;43.412;24.612;2023-02-15T04:11:18;28.70;;;20.60;;
11671;SDS011;5892;43.412;24.612;2023-02-15T04:13:45;30.77;;;20.77;;
11671;SDS011;5892;43.412;24.612;2023-02-15T04:16:21;28.53;;;19.90;;
11671;SDS011;5892;43.412;24.612;2023-02-15T04:18:47;34.00;;;22.93;;
11671;SDS011;5892;43.412;24.612;2023-02-15T04:21:33;31.90;;;20.97;;
11671;SDS011;5892;43.412;24.612;2023-02-15T04:24:17;32.07;;;21.30;;
11671;SDS011;5892;43.412;24.612;2023-02-15T04:27:02;28.20;;;20.33;;
11671;SDS011;5892;43.412;24.612;2023-02-15T04:29:31;34.17;;;22.17;;
11671;SDS011;5892;43.412;24.612;2023-02-15T04:31:59;33.03;;;22.07;;
11671;SDS011;5892;43.412;24.612;2023-02-15T04:34:27;28.90;;;20.10;;
11671;SDS011;5892;43.412;24.612;2023-02-15T04:36:56;28.47;;;20.03;;
11671;SDS011;5892;43.412;24.612;2023-02-15T04:39:23;30.03;;;20.73;;
11671;SDS011;5892;43.412;24.612;2023-02-15T04:41:50;30.07;;;20.67;;
11671;SDS011;5892;43.412;24.612;2023-02-15T04:44:17;31.13;;;20.50;;
11671;SDS011;5892;43.412;24.612;2023-02-15T04:46:44;28.40;;;20.43;;
11671;SDS011;5892;43.412;24.612;2023-02-15T04:49:11;30.27;;;20.60;;
11671;SDS011;5892;43.412;24.612;2023-02-15T04:51:38;30.97;;;20.00;;
11671;SDS011;5892;43.412;24.612;2023-02-15T04:54:07;27.80;;;19.83;;
11671;SDS011;5892;43.412;24.612;2023-02-15T04:56:37;32.17;;;21.10;;
11671;SDS011;5892;43.412;24.612;2023-02-15T04:59:04;28.57;;;20.33;;
11671;SDS011;5892;43.412;24.612;2023-02-15T05:01:31;26.43;;;19.77;;
11671;SDS011;5892;43.412;24.612;2023-02-15T05:04:00;30.30;;;20.90;;
11671;SDS011;5892;43.412;24.612;2023-02-15T05:06:28;32.70;;;22.63;;
11671;SDS011;5892;43.412;24.612;2023-02-15T05:08:55;35.27;;;23.70;;
11671;SDS011;5892;43.412;24.612;2023-02-15T05:11:26;30.73;;;20.87;;
11671;SDS011;5892;43.412;24.612;2023-02-15T05:13:53;32.63;;;21.67;;
11671;SDS011;5892;43.412;24.612;2023-02-15T05:16:20;31.37;;;21.07;;
11671;SDS011;5892;43.412;24.612;2023-02-15T05:18:48;30.43;;;21.10;;
11671;SDS011;5892;43.412;24.612;2023-02-15T05:21:15;32.40;;;21.13;;
11671;SDS011;5892;43.412;24.612;2023-02-15T05:23:42;31.50;;;20.93;;
11671;SDS011;5892;43.412;24.612;2023-02-15T05:26:09;30.67;;;21.23;;
11671;SDS011;5892;43.412;24.612;2023-02-15T05:28:56;31.77;;;22.20;;
11671;SDS011;5892;43.412;24.612;2023-02-15T05:31:24;33.57;;;22.83;;
11671;SDS011;5892;43.412;24.612;2023-02-15T05:33:51;28.73;;;20.60;;
11671;SDS011;5892;43.412;24.612;2023-02-15T05:36:18;29.80;;;21.07;;
11671;SDS011;5892;43.412;24.612;2023-02-15T05:38:45;35.73;;;22.37;;
11671;SDS011;5892;43.412;24.612;2023-02-15T05:41:12;33.13;;;21.97;;
11671;SDS011;5892;43.412;24.612;2023-02-15T05:43:39;31.53;;;22.77;;
11671;SDS011;5892;43.412;24.612;2023-02-15T05:46:08;48.73;;;24.13;;
11671;SDS011;5892;43.412;24.612;2023-02-15T05:48:35;33.57;;;23.30;;
11671;SDS011;5892;43.412;24.612;2023-02-15T05:51:05;31.73;;;23.10;;
11671;SDS011;5892;43.412;24.612;2023-02-15T05:53:34;36.57;;;21.17;;
11671;SDS011;5892;43.412;24.612;2023-02-15T05:56:04;29.90;;;20.83;;
11671;SDS011;5892;43.412;24.612;2023-02-15T05:58:32;29.07;;;21.63;;
11671;SDS011;5892;43.412;24.612;2023-02-15T06:01:08;31.73;;;20.93;;
11671;SDS011;5892;43.412;24.612;2023-02-15T06:03:35;34.53;;;21.23;;
11671;SDS011;5892;43.412;24.612;2023-02-15T06:06:02;30.83;;;21.30;;
11671;SDS011;5892;43.412;24.612;2023-02-15T06:08:29;31.17;;;20.73;;
11671;SDS011;5892;43.412;24.612;2023-02-15T06:10:56;30.00;;;20.53;;
11671;SDS011;5892;43.412;24.612;2023-02-15T06:13:23;31.20;;;19.90;;
11671;SDS011;5892;43.412;24.612;2023-02-15T06:15:52;30.27;;;20.27;;
11671;SDS011;5892;43.412;24.612;2023-02-15T06:18:23;27.70;;;18.73;;
11671;SDS011;5892;43.412;24.612;2023-02-15T06:20:50;26.07;;;19.00;;
11671;SDS011;5892;43.412;24.612;2023-02-15T06:23:19;25.53;;;18.27;;
11671;SDS011;5892;43.412;24.612;2023-02-15T06:25:46;23.73;;;18.13;;
11671;SDS011;5892;43.412;24.612;2023-02-15T06:28:13;27.73;;;18.90;;
11671;SDS011;5892;43.412;24.612;2023-02-15T06:30:40;26.03;;;17.43;;
11671;SDS011;5892;43.412;24.612;2023-02-15T06:33:09;22.03;;;16.90;;
11671;SDS011;5892;43.412;24.612;2023-02-15T06:35:38;20.93;;;16.47;;
11671;SDS011;5892;43.412;24.612;2023-02-15T06:38:05;23.27;;;17.77;;
11671;SDS011;5892;43.412;24.612;2023-02-15T06:40:32;24.33;;;17.50;;
11671;SDS011;5892;43.412;24.612;2023-02-15T06:42:59;21.67;;;17.00;;
11671;SDS011;5892;43.412;24.612;2023-02-15T06:45:26;22.70;;;17.07;;
11671;SDS011;5892;43.412;24.612;2023-02-15T06:47:54;21.03;;;15.97;;
11671;SDS011;5892;43.412;24.612;2023-02-15T06:50:21;24.67;;;17.40;;
11671;SDS011;5892;43.412;24.612;2023-02-15T06:52:52;22.13;;;16.87;;
11671;SDS011;5892;43.412;24.612;2023-02-15T06:55:22;24.23;;;17.00;;
11671;SDS011;5892;43.412;24.612;2023-02-15T06:57:50;23.67;;;17.90;;
11671;SDS011;5892;43.412;24.612;2023-02-15T07:00:17;21.90;;;16.30;;
11671;SDS011;5892;43.412;24.612;2023-02-15T07:02:44;21.13;;;16.73;;
11671;SDS011;5892;43.412;24.612;2023-02-15T07:05:12;20.93;;;16.30;;
11671;SDS011;5892;43.412;24.612;2023-02-15T07:07:39;23.03;;;16.57;;
11671;SDS011;5892;43.412;24.612;2023-02-15T07:10:08;21.77;;;16.13;;
11671;SDS011;5892;43.412;24.612;2023-02-15T07:12:35;21.53;;;16.37;;
11671;SDS011;5892;43.412;24.612;2023-02-15T07:15:10;19.83;;;15.10;;
11671;SDS011;5892;43.412;24.612;2023-02-15T07:17:39;19.93;;;15.53;;
11671;SDS011;5892;43.412;24.612;2023-02-15T07:20:07;19.10;;;15.37;;
11671;SDS011;5892;43.412;24.612;2023-02-15T07:22:37;21.63;;;15.93;;
11671;SDS011;5892;43.412;24.612;2023-02-15T07:25:06;21.37;;;16.10;;
11671;SDS011;5892;43.412;24.612;2023-02-15T07:27:36;21.17;;;15.60;;
11671;SDS011;5892;43.412;24.612;2023-02-15T07:30:04;19.03;;;15.60;;
11671;SDS011;5892;43.412;24.612;2023-02-15T07:32:32;20.67;;;15.40;;
11671;SDS011;5892;43.412;24.612;2023-02-15T07:35:00;24.00;;;16.07;;
11671;SDS011;5892;43.412;24.612;2023-02-15T07:37:29;20.13;;;14.73;;
11671;SDS011;5892;43.412;24.612;2023-02-15T07:39:57;21.80;;;15.97;;
11671;SDS011;5892;43.412;24.612;2023-02-15T07:42:26;20.53;;;15.87;;
11671;SDS011;5892;43.412;24.612;2023-02-15T07:44:53;21.20;;;15.60;;
11671;SDS011;5892;43.412;24.612;2023-02-15T07:47:21;29.47;;;15.83;;
11671;SDS011;5892;43.412;24.612;2023-02-15T07:49:49;19.97;;;15.47;;
11671;SDS011;5892;43.412;24.612;2023-02-15T07:52:16;21.30;;;15.20;;
11671;SDS011;5892;43.412;24.612;2023-02-15T07:54:44;19.17;;;15.33;;
11671;SDS011;5892;43.412;24.612;2023-02-15T07:57:11;20.63;;;15.80;;
11671;SDS011;5892;43.412;24.612;2023-02-15T07:59:41;25.83;;;15.23;;
11671;SDS011;5892;43.412;24.612;2023-02-15T08:02:09;21.73;;;16.37;;
11671;SDS011;5892;43.412;24.612;2023-02-15T08:04:37;20.30;;;15.73;;
11671;SDS011;5892;43.412;24.612;2023-02-15T08:07:05;19.43;;;15.83;;
11671;SDS011;5892;43.412;24.612;2023-02-15T08:09:33;20.87;;;15.67;;
11671;SDS011;5892;43.412;24.612;2023-02-15T08:12:03;21.23;;;15.63;;
11671;SDS011;5892;43.412;24.612;2023-02-15T08:14:30;22.00;;;15.70;;
11671;SDS011;5892;43.412;24.612;2023-02-15T08:17:00;22.73;;;15.53;;
11671;SDS011;5892;43.412;24.612;2023-02-15T08:19:30;22.63;;;15.37;;
11671;SDS011;5892;43.412;24.612;2023-02-15T08:21:59;20.33;;;16.13;;
11671;SDS011;5892;43.412;24.612;2023-02-15T08:24:29;25.93;;;16.30;;
11671;SDS011;5892;43.412;24.612;2023-02-15T08:26:57;19.77;;;15.77;;
11671;SDS011;5892;43.412;24.612;2023-02-15T08:29:28;18.67;;;15.53;;
11671;SDS011;5892;43.412;24.612;2023-02-15T08:31:56;21.70;;;16.20;;
11671;SDS011;5892;43.412;24.612;2023-02-15T08:34:29;21.20;;;15.10;;
11671;SDS011;5892;43.412;24.612;2023-02-15T08:36:57;19.17;;;15.17;;
11671;SDS011;5892;43.412;24.612;2023-02-15T08:39:25;20.53;;;15.00;;
11671;SDS011;5892;43.412;24.612;2023-02-15T08:41:53;24.30;;;15.90;;
11671;SDS011;5892;43.412;24.612;2023-02-15T08:44:22;20.50;;;15.10;;
11671;SDS011;5892;43.412;24.612;2023-02-15T08:46:50;19.33;;;14.73;;
11671;SDS011;5892;43.412;24.612;2023-02-15T08:49:17;20.33;;;14.70;;
11671;SDS011;5892;43.412;24.612;2023-02-15T08:51:47;21.23;;;16.47;;
11671;SDS011;5892;43.412;24.612;2023-02-15T08:54:17;18.93;;;14.90;;
11671;SDS011;5892;43.412;24.612;2023-02-15T08:56:47;18.43;;;15.00;;
11671;SDS011;5892;43.412;24.612;2023-02-15T08:59:16;17.90;;;14.43;;
11671;SDS011;5892;43.412;24.612;2023-02-15T09:01:47;19.80;;;15.63;;
11671;SDS011;5892;43.412;24.612;2023-02-15T09:04:15;19.37;;;15.77;;
11671;SDS011;5892;43.412;24.612;2023-02-15T09:06:44;19.47;;;15.10;;
11671;SDS011;5892;43.412;24.612;2023-02-15T09:09:14;20.70;;;15.13;;
11671;SDS011;5892;43.412;24.612;2023-02-15T09:11:43;19.63;;;15.33;;
11671;SDS011;5892;43.412;24.612;2023-02-15T09:14:12;21.60;;;15.60;;
11671;SDS011;5892;43.412;24.612;2023-02-15T09:16:41;20.77;;;14.90;;
11671;SDS011;5892;43.412;24.612;2023-02-15T09:19:11;19.90;;;15.23;;
11671;SDS011;5892;43.412;24.612;2023-02-15T09:21:39;19.43;;;14.37;;
11671;SDS011;5892;43.412;24.612;2023-02-15T09:24:07;19.87;;;14.27;;
11671;SDS011;5892;43.412;24.612;2023-02-15T09:26:39;16.70;;;14.10;;
11671;SDS011;5892;43.412;24.612;2023-02-15T09:29:07;20.57;;;14.70;;
11671;SDS011;5892;43.412;24.612;2023-02-15T09:31:37;27.47;;;14.87;;
11671;SDS011;5892;43.412;24.612;2023-02-15T09:34:06;17.33;;;14.40;;
11671;SDS011;5892;43.412;24.612;2023-02-15T09:36:34;20.30;;;14.73;;
11671;SDS011;5892;43.412;24.612;2023-02-15T09:39:03;19.60;;;14.90;;
11671;SDS011;5892;43.412;24.612;2023-02-15T09:41:48;16.80;;;14.30;;
11671;SDS011;5892;43.412;24.612;2023-02-15T09:44:35;18.57;;;13.80;;
11671;SDS011;5892;43.412;24.612;2023-02-15T09:47:20;16.67;;;12.23;;
11671;SDS011;5892;43.412;24.612;2023-02-15T09:50:06;15.90;;;12.13;;
11671;SDS011;5892;43.412;24.612;2023-02-15T09:52:47;17.03;;;12.87;;
11671;SDS011;5892;43.412;24.612;2023-02-15T09:55:33;16.17;;;13.40;;
11671;SDS011;5892;43.412;24.612;2023-02-15T09:58:16;16.40;;;12.97;;
11671;SDS011;5892;43.412;24.612;2023-02-15T10:00:54;17.17;;;13.90;;
11671;SDS011;5892;43.412;24.612;2023-02-15T10:03:32;15.43;;;12.90;;
11671;SDS011;5892;43.412;24.612;2023-02-15T10:06:17;19.03;;;14.20;;
11671;SDS011;5892;43.412;24.612;2023-02-15T10:09:02;16.83;;;14.07;;
11671;SDS011;5892;43.412;24.612;2023-02-15T10:11:41;15.57;;;13.17;;
11671;SDS011;5892;43.412;24.612;2023-02-15T10:20:44;16.37;;;13.17;;
11671;SDS011;5892;43.412;24.612;2023-02-15T10:23:29;17.30;;;13.57;;
11671;SDS011;5892;43.412;24.612;2023-02-15T10:26:10;16.67;;;13.10;;
11671;SDS011;5892;43.412;24.612;2023-02-15T10:28:44;17.10;;;13.50;;
11671;SDS011;5892;43.412;24.612;2023-02-15T10:31:17;17.33;;;13.47;;
11671;SDS011;5892;43.412;24.612;2023-02-15T10:33:52;19.07;;;14.33;;
11671;SDS011;5892;43.412;24.612;2023-02-15T10:36:36;20.03;;;15.23;;
11671;SDS011;5892;43.412;24.612;2023-02-15T10:39:16;17.40;;;13.43;;
11671;SDS011;5892;43.412;24.612;2023-02-15T10:41:51;19.77;;;13.70;;
11671;SDS011;5892;43.412;24.612;2023-02-15T10:44:34;17.77;;;14.30;;
11671;SDS011;5892;43.412;24.612;2023-02-15T10:47:23;17.67;;;12.73;;
11671;SDS011;5892;43.412;24.612;2023-02-15T10:50:06;17.10;;;12.40;;
11671;SDS011;5892;43.412;24.612;2023-02-15T10:53:08;16.37;;;13.07;;
11671;SDS011;5892;43.412;24.612;2023-02-15T10:55:50;17.37;;;12.87;;
11671;SDS011;5892;43.412;24.612;2023-02-15T10:58:24;17.27;;;14.63;;
11671;SDS011;5892;43.412;24.612;2023-02-15T11:01:02;20.93;;;15.53;;
11671;SDS011;5892;43.412;24.612;2023-02-15T11:03:43;18.27;;;14.73;;
11671;SDS011;5892;43.412;24.612;2023-02-15T11:06:27;16.07;;;13.50;;
11671;SDS011;5892;43.412;24.612;2023-02-15T11:08:57;17.83;;;14.90;;
11671;SDS011;5892;43.412;24.612;2023-02-15T11:11:29;18.03;;;15.20;;
11671;SDS011;5892;43.412;24.612;2023-02-15T11:14:00;22.33;;;17.67;;
11671;SDS011;5892;43.412;24.612;2023-02-15T11:16:32;22.80;;;16.27;;
11671;SDS011;5892;43.412;24.612;2023-02-15T11:19:04;18.73;;;15.03;;
11671;SDS011;5892;43.412;24.612;2023-02-15T11:21:36;21.30;;;17.07;;
11671;SDS011;5892;43.412;24.612;2023-02-15T11:24:10;21.53;;;17.00;;
11671;SDS011;5892;43.412;24.612;2023-02-15T11:26:39;19.03;;;15.83;;
11671;SDS011;5892;43.412;24.612;2023-02-15T11:29:10;24.70;;;19.17;;
11671;SDS011;5892;43.412;24.612;2023-02-15T11:31:44;29.00;;;21.07;;
11671;SDS011;5892;43.412;24.612;2023-02-15T11:34:15;20.30;;;15.13;;
11671;SDS011;5892;43.412;24.612;2023-02-15T11:36:46;37.53;;;24.53;;
11671;SDS011;5892;43.412;24.612;2023-02-15T11:39:18;19.97;;;14.97;;
11671;SDS011;5892;43.412;24.612;2023-02-15T11:41:49;15.57;;;12.70;;
11671;SDS011;5892;43.412;24.612;2023-02-15T11:44:20;18.00;;;12.90;;
11671;SDS011;5892;43.412;24.612;2023-02-15T11:46:51;21.37;;;15.17;;
11671;SDS011;5892;43.412;24.612;2023-02-15T11:49:22;19.33;;;14.73;;
11671;SDS011;5892;43.412;24.612;2023-02-15T11:51:56;16.87;;;13.60;;
11671;SDS011;5892;43.412;24.612;2023-02-15T11:54:26;17.90;;;14.70;;
11671;SDS011;5892;43.412;24.612;2023-02-15T11:56:56;33.67;;;21.83;;
11671;SDS011;5892;43.412;24.612;2023-02-15T11:59:31;18.50;;;13.93;;
11671;SDS011;5892;43.412;24.612;2023-02-15T12:02:02;16.27;;;12.80;;
11671;SDS011;5892;43.412;24.612;2023-02-15T12:04:41;17.10;;;13.77;;
11671;SDS011;5892;43.412;24.612;2023-02-15T12:07:13;15.37;;;13.20;;
11671;SDS011;5892;43.412;24.612;2023-02-15T12:09:50;24.70;;;16.57;;
11671;SDS011;5892;43.412;24.612;2023-02-15T12:12:23;17.67;;;14.70;;
11671;SDS011;5892;43.412;24.612;2023-02-15T12:14:52;19.10;;;14.10;;
11671;SDS011;5892;43.412;24.612;2023-02-15T12:17:20;17.23;;;13.73;;
11671;SDS011;5892;43.412;24.612;2023-02-15T12:19:49;19.33;;;14.33;;
11671;SDS011;5892;43.412;24.612;2023-02-15T12:22:21;14.27;;;12.37;;
11671;SDS011;5892;43.412;24.612;2023-02-15T12:24:52;14.60;;;12.67;;
11671;SDS011;5892;43.412;24.612;2023-02-15T12:27:22;13.83;;;12.07;;
11671;SDS011;5892;43.412;24.612;2023-02-15T12:29:52;15.33;;;12.20;;
11671;SDS011;5892;43.412;24.612;2023-02-15T12:32:23;19.40;;;13.20;;
11671;SDS011;5892;43.412;24.612;2023-02-15T12:34:51;15.57;;;12.40;;
11671;SDS011;5892;43.412;24.612;2023-02-15T12:37:26;17.07;;;12.17;;
11671;SDS011;5892;43.412;24.612;2023-02-15T12:39:59;15.97;;;12.60;;
11671;SDS011;5892;43.412;24.612;2023-02-15T12:42:28;18.17;;;12.13;;
11671;SDS011;5892;43.412;24.612;2023-02-15T12:45:20;17.40;;;12.40;;
11671;SDS011;5892;43.412;24.612;2023-02-15T12:48:07;21.30;;;13.93;;
11671;SDS011;5892;43.412;24.612;2023-02-15T12:50:44;15.10;;;12.10;;
11671;SDS011;5892;43.412;24.612;2023-02-15T12:53:15;14.87;;;12.23;;
11671;SDS011;5892;43.412;24.612;2023-02-15T12:55:53;13.97;;;11.73;;
11671;SDS011;5892;43.412;24.612;2023-02-15T12:58:22;14.30;;;12.57;;
11671;SDS011;5892;43.412;24.612;2023-02-15T13:03:56;15.83;;;12.97;;
11671;SDS011;5892;43.412;24.612;2023-02-15T13:06:25;16.10;;;12.93;;
11671;SDS011;5892;43.412;24.612;2023-02-15T13:08:53;16.43;;;12.53;;
11671;SDS011;5892;43.412;24.612;2023-02-15T13:11:24;15.23;;;12.67;;
11671;SDS011;5892;43.412;24.612;2023-02-15T13:13:59;26.77;;;13.83;;
11671;SDS011;5892;43.412;24.612;2023-02-15T13:16:29;15.63;;;11.70;;
11671;SDS011;5892;43.412;24.612;2023-02-15T13:18:58;14.93;;;13.13;;
11671;SDS011;5892;43.412;24.612;2023-02-15T13:21:32;15.70;;;12.53;;
11671;SDS011;5892;43.412;24.612;2023-02-15T13:24:05;16.03;;;13.00;;
11671;SDS011;5892;43.412;24.612;2023-02-15T13:26:42;15.90;;;12.60;;
11671;SDS011;5892;43.412;24.612;2023-02-15T13:29:14;16.67;;;13.13;;
11671;SDS011;5892;43.412;24.612;2023-02-15T13:31:44;16.10;;;12.20;;
11671;SDS011;5892;43.412;24.612;2023-02-15T13:34:14;17.93;;;12.53;;
11671;SDS011;5892;43.412;24.612;2023-02-15T13:36:47;17.03;;;13.17;;
11671;SDS011;5892;43.412;24.612;2023-02-15T13:39:22;16.37;;;13.13;;
11671;SDS011;5892;43.412;24.612;2023-02-15T13:41:58;18.73;;;13.13;;
11671;SDS011;5892;43.412;24.612;2023-02-15T13:44:38;18.87;;;12.90;;
11671;SDS011;5892;43.412;24.612;2023-02-15T13:47:32;20.73;;;14.33;;
11671;SDS011;5892;43.412;24.612;2023-02-15T13:53:02;16.60;;;13.27;;
11671;SDS011;5892;43.412;24.612;2023-02-15T13:55:47;18.50;;;13.47;;
11671;SDS011;5892;43.412;24.612;2023-02-15T14:01:18;21.53;;;15.20;;
11671;SDS011;5892;43.412;24.612;2023-02-15T14:04:00;16.57;;;13.53;;
11671;SDS011;5892;43.412;24.612;2023-02-15T14:06:49;18.17;;;14.30;;
11671;SDS011;5892;43.412;24.612;2023-02-15T14:09:40;19.10;;;13.40;;
11671;SDS011;5892;43.412;24.612;2023-02-15T14:12:24;17.80;;;13.10;;
11671;SDS011;5892;43.412;24.612;2023-02-15T14:18:08;17.60;;;14.23;;
11671;SDS011;5892;43.412;24.612;2023-02-15T14:20:46;16.43;;;13.40;;
11671;SDS011;5892;43.412;24.612;2023-02-15T14:23:26;18.67;;;14.63;;
11671;SDS011;5892;43.412;24.612;2023-02-15T14:26:02;17.67;;;14.57;;
11671;SDS011;5892;43.412;24.612;2023-02-15T14:28:37;18.37;;;13.97;;
11671;SDS011;5892;43.412;24.612;2023-02-15T14:31:11;18.03;;;14.63;;
11671;SDS011;5892;43.412;24.612;2023-02-15T14:33:41;21.50;;;15.27;;
11671;SDS011;5892;43.412;24.612;2023-02-15T14:36:20;18.43;;;14.87;;
11671;SDS011;5892;43.412;24.612;2023-02-15T14:39:06;23.37;;;15.43;;
11671;SDS011;5892;43.412;24.612;2023-02-15T14:41:57;19.17;;;14.87;;
11671;SDS011;5892;43.412;24.612;2023-02-15T14:44:32;17.93;;;14.60;;
11671;SDS011;5892;43.412;24.612;2023-02-15T14:47:05;17.73;;;14.50;;
11671;SDS011;5892;43.412;24.612;2023-02-15T14:49:39;24.30;;;15.83;;
11671;SDS011;5892;43.412;24.612;2023-02-15T14:52:06;18.33;;;14.80;;
11671;SDS011;5892;43.412;24.612;2023-02-15T14:57:32;17.80;;;14.37;;
11671;SDS011;5892;43.412;24.612;2023-02-15T15:00:00;18.80;;;15.07;;
11671;SDS011;5892;43.412;24.612;2023-02-15T15:02:50;17.77;;;14.20;;
11671;SDS011;5892;43.412;24.612;2023-02-15T15:05:20;19.93;;;15.47;;
11671;SDS011;5892;43.412;24.612;2023-02-15T15:07:52;19.87;;;14.77;;
11671;SDS011;5892;43.412;24.612;2023-02-15T15:10:32;19.63;;;15.73;;
11671;SDS011;5892;43.412;24.612;2023-02-15T15:16:31;19.20;;;15.63;;
11671;SDS011;5892;43.412;24.612;2023-02-15T15:24:47;22.13;;;17.07;;
11671;SDS011;5892;43.412;24.612;2023-02-15T15:27:39;19.90;;;15.00;;
11671;SDS011;5892;43.412;24.612;2023-02-15T15:33:17;24.93;;;16.97;;